Dallasania, Illinois
Current Conditions -  °F | °C
As of 5:55 AM on Thursday 23 Oct 2014 (Local Time) from KHSB Reporting Station
Moderate Fog Moderate Fog  
Wind Chill: 34°   Ceiling: Unl
Heat Index: 34°   Visibility: 0mi
Dew Point: 34°   Wind: 0mph
Humidity: 100%   Direction: NA
Pressure: 30.24"   Gusts: NA
Location:  37.6604°N, 88.6136°W
Report Text: KHSB 231055Z AUTO 00000KT M1/4SM FG VV000 01/01 A3024 RMK AO2 T00100010
Loading
Personal Weather Stations






























Interactive Weather Map
Tropical Storm Tracking
New forecast layout! Learn more

10-Day Weather Forecast

Advertisements
Track Severe Weather on mobile